sensor_id;sensor_type;location;lat;lon;timestamp;P1;durP1;ratioP1;P2;durP2;ratioP2
8982;SDS011;20979;59.850;10.660;2023-05-01T00:00:18;3.80;;;1.60;;
8982;SDS011;20979;59.850;10.660;2023-05-01T00:02:52;4.80;;;1.83;;
8982;SDS011;20979;59.850;10.660;2023-05-01T00:05:37;3.07;;;1.90;;
8982;SDS011;20979;59.850;10.660;2023-05-01T00:08:19;2.70;;;1.40;;
8982;SDS011;20979;59.850;10.660;2023-05-01T00:11:01;1.77;;;1.60;;
8982;SDS011;20979;59.850;10.660;2023-05-01T00:13:34;2.60;;;1.87;;
8982;SDS011;20979;59.850;10.660;2023-05-01T00:16:07;2.30;;;1.87;;
8982;SDS011;20979;59.850;10.660;2023-05-01T00:18:48;2.83;;;1.93;;
8982;SDS011;20979;59.850;10.660;2023-05-01T00:21:37;2.10;;;1.60;;
8982;SDS011;20979;59.850;10.660;2023-05-01T00:24:19;2.17;;;1.80;;
8982;SDS011;20979;59.850;10.660;2023-05-01T00:26:47;1.73;;;1.43;;
8982;SDS011;20979;59.850;10.660;2023-05-01T00:29:28;2.57;;;1.70;;
8982;SDS011;20979;59.850;10.660;2023-05-01T00:31:58;4.73;;;1.93;;
8982;SDS011;20979;59.850;10.660;2023-05-01T00:34:30;1.87;;;1.63;;
8982;SDS011;20979;59.850;10.660;2023-05-01T00:37:15;3.70;;;1.73;;
8982;SDS011;20979;59.850;10.660;2023-05-01T00:39:43;2.03;;;1.83;;
8982;SDS011;20979;59.850;10.660;2023-05-01T00:42:15;2.93;;;1.53;;
8982;SDS011;20979;59.850;10.660;2023-05-01T00:44:57;2.97;;;1.60;;
8982;SDS011;20979;59.850;10.660;2023-05-01T00:47:29;2.80;;;1.70;;
8982;SDS011;20979;59.850;10.660;2023-05-01T00:50:12;3.90;;;1.90;;
8982;SDS011;20979;59.850;10.660;2023-05-01T00:53:03;2.53;;;1.70;;
8982;SDS011;20979;59.850;10.660;2023-05-01T00:55:45;4.13;;;1.63;;
8982;SDS011;20979;59.850;10.660;2023-05-01T00:58:27;2.60;;;1.70;;
8982;SDS011;20979;59.850;10.660;2023-05-01T01:01:09;4.17;;;2.07;;
8982;SDS011;20979;59.850;10.660;2023-05-01T01:03:38;2.77;;;1.90;;
8982;SDS011;20979;59.850;10.660;2023-05-01T01:06:08;2.43;;;1.60;;
8982;SDS011;20979;59.850;10.660;2023-05-01T01:11:42;2.77;;;1.77;;
8982;SDS011;20979;59.850;10.660;2023-05-01T01:14:14;3.60;;;1.80;;
8982;SDS011;20979;59.850;10.660;2023-05-01T01:16:56;1.70;;;1.40;;
8982;SDS011;20979;59.850;10.660;2023-05-01T01:19:56;2.17;;;1.47;;
8982;SDS011;20979;59.850;10.660;2023-05-01T01:22:30;3.17;;;1.70;;
8982;SDS011;20979;59.850;10.660;2023-05-01T01:25:26;2.50;;;1.50;;
8982;SDS011;20979;59.850;10.660;2023-05-01T01:28:04;2.63;;;1.70;;
8982;SDS011;20979;59.850;10.660;2023-05-01T01:31:07;2.10;;;1.60;;
8982;SDS011;20979;59.850;10.660;2023-05-01T01:36:36;2.07;;;1.63;;
8982;SDS011;20979;59.850;10.660;2023-05-01T01:39:08;2.53;;;1.60;;
8982;SDS011;20979;59.850;10.660;2023-05-01T01:41:37;2.33;;;1.47;;
8982;SDS011;20979;59.850;10.660;2023-05-01T01:44:08;5.40;;;1.73;;
8982;SDS011;20979;59.850;10.660;2023-05-01T01:46:39;3.63;;;1.70;;
8982;SDS011;20979;59.850;10.660;2023-05-01T01:49:12;3.00;;;1.67;;
8982;SDS011;20979;59.850;10.660;2023-05-01T01:51:43;1.87;;;1.50;;
8982;SDS011;20979;59.850;10.660;2023-05-01T01:54:23;3.47;;;1.80;;
8982;SDS011;20979;59.850;10.660;2023-05-01T01:56:54;2.53;;;1.73;;
8982;SDS011;20979;59.850;10.660;2023-05-01T01:59:36;2.40;;;1.70;;
8982;SDS011;20979;59.850;10.660;2023-05-01T02:02:19;2.33;;;1.70;;
8982;SDS011;20979;59.850;10.660;2023-05-01T02:04:50;3.33;;;1.90;;
8982;SDS011;20979;59.850;10.660;2023-05-01T02:07:24;2.30;;;1.80;;
8982;SDS011;20979;59.850;10.660;2023-05-01T02:09:57;2.57;;;1.60;;
8982;SDS011;20979;59.850;10.660;2023-05-01T02:12:27;2.30;;;1.87;;
8982;SDS011;20979;59.850;10.660;2023-05-01T02:15:02;2.63;;;1.80;;
8982;SDS011;20979;59.850;10.660;2023-05-01T02:17:30;2.77;;;1.83;;
8982;SDS011;20979;59.850;10.660;2023-05-01T02:20:01;3.97;;;1.77;;
8982;SDS011;20979;59.850;10.660;2023-05-01T02:22:33;3.07;;;1.73;;
8982;SDS011;20979;59.850;10.660;2023-05-01T02:25:06;2.63;;;1.70;;
8982;SDS011;20979;59.850;10.660;2023-05-01T02:27:37;2.40;;;1.77;;
8982;SDS011;20979;59.850;10.660;2023-05-01T02:30:05;2.60;;;1.60;;
8982;SDS011;20979;59.850;10.660;2023-05-01T02:48:15;2.47;;;1.73;;
8982;SDS011;20979;59.850;10.660;2023-05-01T02:50:47;3.27;;;1.70;;
8982;SDS011;20979;59.850;10.660;2023-05-01T02:53:16;2.67;;;1.60;;
8982;SDS011;20979;59.850;10.660;2023-05-01T02:55:43;2.33;;;1.50;;
8982;SDS011;20979;59.850;10.660;2023-05-01T02:58:14;3.03;;;1.60;;
8982;SDS011;20979;59.850;10.660;2023-05-01T03:00:42;2.40;;;1.67;;
8982;SDS011;20979;59.850;10.660;2023-05-01T03:03:10;2.43;;;1.70;;
8982;SDS011;20979;59.850;10.660;2023-05-01T03:05:40;2.97;;;1.30;;
8982;SDS011;20979;59.850;10.660;2023-05-01T03:08:09;1.77;;;1.47;;
8982;SDS011;20979;59.850;10.660;2023-05-01T03:10:38;4.00;;;1.70;;
8982;SDS011;20979;59.850;10.660;2023-05-01T03:13:06;3.77;;;1.87;;
8982;SDS011;20979;59.850;10.660;2023-05-01T03:15:34;2.63;;;1.43;;
8982;SDS011;20979;59.850;10.660;2023-05-01T03:18:02;2.03;;;1.60;;
8982;SDS011;20979;59.850;10.660;2023-05-01T03:20:32;2.97;;;1.67;;
8982;SDS011;20979;59.850;10.660;2023-05-01T03:23:01;2.30;;;1.70;;
8982;SDS011;20979;59.850;10.660;2023-05-01T03:25:30;3.30;;;1.60;;
8982;SDS011;20979;59.850;10.660;2023-05-01T03:27:58;2.10;;;1.70;;
8982;SDS011;20979;59.850;10.660;2023-05-01T03:30:28;1.67;;;1.50;;
8982;SDS011;20979;59.850;10.660;2023-05-01T03:32:55;3.17;;;1.63;;
8982;SDS011;20979;59.850;10.660;2023-05-01T03:35:23;3.50;;;1.57;;
8982;SDS011;20979;59.850;10.660;2023-05-01T03:37:51;3.53;;;1.97;;
8982;SDS011;20979;59.850;10.660;2023-05-01T03:40:20;1.67;;;1.43;;
8982;SDS011;20979;59.850;10.660;2023-05-01T03:42:48;4.23;;;1.97;;
8982;SDS011;20979;59.850;10.660;2023-05-01T03:45:15;3.00;;;1.90;;
8982;SDS011;20979;59.850;10.660;2023-05-01T03:47:43;1.97;;;1.50;;
8982;SDS011;20979;59.850;10.660;2023-05-01T03:50:11;3.23;;;1.83;;
8982;SDS011;20979;59.850;10.660;2023-05-01T03:52:38;3.67;;;1.80;;
8982;SDS011;20979;59.850;10.660;2023-05-01T03:55:06;2.30;;;1.80;;
8982;SDS011;20979;59.850;10.660;2023-05-01T03:57:35;4.87;;;2.27;;
8982;SDS011;20979;59.850;10.660;2023-05-01T04:00:03;3.60;;;2.00;;
8982;SDS011;20979;59.850;10.660;2023-05-01T04:02:31;4.90;;;2.50;;
8982;SDS011;20979;59.850;10.660;2023-05-01T04:04:58;3.77;;;2.27;;
8982;SDS011;20979;59.850;10.660;2023-05-01T04:07:26;5.43;;;2.70;;
8982;SDS011;20979;59.850;10.660;2023-05-01T04:09:53;5.03;;;2.30;;
8982;SDS011;20979;59.850;10.660;2023-05-01T04:12:21;3.57;;;2.53;;
8982;SDS011;20979;59.850;10.660;2023-05-01T04:14:53;3.60;;;2.60;;
8982;SDS011;20979;59.850;10.660;2023-05-01T04:17:23;4.93;;;2.40;;
8982;SDS011;20979;59.850;10.660;2023-05-01T04:19:51;5.03;;;2.40;;
8982;SDS011;20979;59.850;10.660;2023-05-01T04:22:20;4.77;;;2.43;;
8982;SDS011;20979;59.850;10.660;2023-05-01T04:24:47;3.23;;;2.20;;
8982;SDS011;20979;59.850;10.660;2023-05-01T04:27:15;3.37;;;2.30;;
8982;SDS011;20979;59.850;10.660;2023-05-01T04:29:43;3.70;;;2.27;;
8982;SDS011;20979;59.850;10.660;2023-05-01T04:32:13;4.37;;;2.50;;
8982;SDS011;20979;59.850;10.660;2023-05-01T04:34:42;3.73;;;2.33;;
8982;SDS011;20979;59.850;10.660;2023-05-01T04:37:18;2.13;;;1.83;;
8982;SDS011;20979;59.850;10.660;2023-05-01T06:59:44;3.47;;;2.50;;
8982;SDS011;20979;59.850;10.660;2023-05-01T07:02:12;4.13;;;2.40;;
8982;SDS011;20979;59.850;10.660;2023-05-01T07:04:39;2.57;;;2.17;;
8982;SDS011;20979;59.850;10.660;2023-05-01T07:07:08;2.63;;;2.20;;
8982;SDS011;20979;59.850;10.660;2023-05-01T07:09:36;2.70;;;2.37;;
8982;SDS011;20979;59.850;10.660;2023-05-01T07:12:04;3.17;;;2.10;;
8982;SDS011;20979;59.850;10.660;2023-05-01T07:20:02;3.13;;;2.13;;
8982;SDS011;20979;59.850;10.660;2023-05-01T07:22:35;2.53;;;2.20;;
8982;SDS011;20979;59.850;10.660;2023-05-01T07:25:03;3.33;;;2.23;;
8982;SDS011;20979;59.850;10.660;2023-05-01T07:27:31;2.33;;;2.13;;
8982;SDS011;20979;59.850;10.660;2023-05-01T07:30:01;3.00;;;2.13;;
8982;SDS011;20979;59.850;10.660;2023-05-01T07:32:30;5.63;;;2.40;;
8982;SDS011;20979;59.850;10.660;2023-05-01T07:37:52;3.67;;;2.70;;
8982;SDS011;20979;59.850;10.660;2023-05-01T07:40:19;3.17;;;2.70;;
8982;SDS011;20979;59.850;10.660;2023-05-01T07:42:46;2.83;;;2.63;;
8982;SDS011;20979;59.850;10.660;2023-05-01T07:45:15;4.60;;;2.73;;
8982;SDS011;20979;59.850;10.660;2023-05-01T07:47:45;2.80;;;2.43;;
8982;SDS011;20979;59.850;10.660;2023-05-01T07:50:15;3.13;;;2.30;;
8982;SDS011;20979;59.850;10.660;2023-05-01T07:52:46;3.20;;;2.40;;
8982;SDS011;20979;59.850;10.660;2023-05-01T07:55:15;2.90;;;2.60;;
8982;SDS011;20979;59.850;10.660;2023-05-01T07:57:44;2.83;;;2.20;;
8982;SDS011;20979;59.850;10.660;2023-05-01T08:00:13;3.97;;;2.50;;
8982;SDS011;20979;59.850;10.660;2023-05-01T08:02:44;3.53;;;2.90;;
8982;SDS011;20979;59.850;10.660;2023-05-01T08:05:11;2.73;;;2.40;;
8982;SDS011;20979;59.850;10.660;2023-05-01T08:07:39;2.60;;;2.40;;
8982;SDS011;20979;59.850;10.660;2023-05-01T08:10:07;2.73;;;2.47;;
8982;SDS011;20979;59.850;10.660;2023-05-01T08:12:37;2.73;;;2.50;;
8982;SDS011;20979;59.850;10.660;2023-05-01T08:15:06;2.60;;;2.40;;
8982;SDS011;20979;59.850;10.660;2023-05-01T08:17:33;2.90;;;2.17;;
8982;SDS011;20979;59.850;10.660;2023-05-01T08:20:01;2.47;;;2.27;;
8982;SDS011;20979;59.850;10.660;2023-05-01T08:22:29;2.63;;;2.40;;
8982;SDS011;20979;59.850;10.660;2023-05-01T08:24:56;2.30;;;2.10;;
8982;SDS011;20979;59.850;10.660;2023-05-01T08:27:24;3.20;;;2.50;;
8982;SDS011;20979;59.850;10.660;2023-05-01T08:29:54;2.50;;;2.30;;
8982;SDS011;20979;59.850;10.660;2023-05-01T08:32:22;3.43;;;2.60;;
8982;SDS011;20979;59.850;10.660;2023-05-01T08:34:49;3.13;;;2.60;;
8982;SDS011;20979;59.850;10.660;2023-05-01T08:37:17;3.00;;;2.70;;
8982;SDS011;20979;59.850;10.660;2023-05-01T08:39:45;2.80;;;2.60;;
8982;SDS011;20979;59.850;10.660;2023-05-01T08:42:12;3.10;;;2.50;;
8982;SDS011;20979;59.850;10.660;2023-05-01T08:44:40;2.93;;;2.63;;
8982;SDS011;20979;59.850;10.660;2023-05-01T08:47:11;3.20;;;2.90;;
8982;SDS011;20979;59.850;10.660;2023-05-01T08:49:41;3.07;;;2.77;;
8982;SDS011;20979;59.850;10.660;2023-05-01T08:57:21;3.00;;;2.80;;
8982;SDS011;20979;59.850;10.660;2023-05-01T08:59:49;3.77;;;2.70;;
8982;SDS011;20979;59.850;10.660;2023-05-01T09:02:20;3.83;;;3.40;;
8982;SDS011;20979;59.850;10.660;2023-05-01T09:04:47;3.17;;;2.87;;
8982;SDS011;20979;59.850;10.660;2023-05-01T09:07:15;3.10;;;2.80;;
8982;SDS011;20979;59.850;10.660;2023-05-01T09:09:42;3.10;;;2.37;;
8982;SDS011;20979;59.850;10.660;2023-05-01T09:12:11;3.70;;;2.90;;
8982;SDS011;20979;59.850;10.660;2023-05-01T09:14:41;2.63;;;2.43;;
8982;SDS011;20979;59.850;10.660;2023-05-01T09:17:09;2.90;;;2.60;;
8982;SDS011;20979;59.850;10.660;2023-05-01T09:19:40;2.83;;;2.30;;
8982;SDS011;20979;59.850;10.660;2023-05-01T09:22:07;2.20;;;2.00;;
8982;SDS011;20979;59.850;10.660;2023-05-01T09:24:35;2.50;;;2.30;;
8982;SDS011;20979;59.850;10.660;2023-05-01T09:27:03;3.30;;;2.47;;
8982;SDS011;20979;59.850;10.660;2023-05-01T09:29:38;3.53;;;2.70;;
8982;SDS011;20979;59.850;10.660;2023-05-01T09:32:11;3.83;;;2.90;;
8982;SDS011;20979;59.850;10.660;2023-05-01T09:34:42;2.27;;;2.10;;
8982;SDS011;20979;59.850;10.660;2023-05-01T09:37:11;2.93;;;2.00;;
8982;SDS011;20979;59.850;10.660;2023-05-01T09:39:39;2.27;;;2.10;;
8982;SDS011;20979;59.850;10.660;2023-05-01T09:42:07;2.47;;;2.27;;
8982;SDS011;20979;59.850;10.660;2023-05-01T09:44:40;2.50;;;2.23;;
8982;SDS011;20979;59.850;10.660;2023-05-01T09:47:09;2.30;;;2.10;;
8982;SDS011;20979;59.850;10.660;2023-05-01T09:49:45;2.40;;;2.20;;
8982;SDS011;20979;59.850;10.660;2023-05-01T09:52:14;2.50;;;2.20;;
8982;SDS011;20979;59.850;10.660;2023-05-01T09:54:42;2.87;;;2.53;;
8982;SDS011;20979;59.850;10.660;2023-05-01T09:57:09;3.67;;;3.20;;
8982;SDS011;20979;59.850;10.660;2023-05-01T09:59:37;2.60;;;2.40;;
8982;SDS011;20979;59.850;10.660;2023-05-01T10:02:04;2.40;;;2.20;;
8982;SDS011;20979;59.850;10.660;2023-05-01T10:04:33;2.60;;;2.40;;
8982;SDS011;20979;59.850;10.660;2023-05-01T10:07:10;2.27;;;1.90;;
8982;SDS011;20979;59.850;10.660;2023-05-01T10:09:38;2.07;;;1.90;;
8982;SDS011;20979;59.850;10.660;2023-05-01T10:12:06;2.83;;;2.20;;
8982;SDS011;20979;59.850;10.660;2023-05-01T10:14:34;1.83;;;1.73;;
8982;SDS011;20979;59.850;10.660;2023-05-01T10:17:17;2.93;;;2.47;;
8982;SDS011;20979;59.850;10.660;2023-05-01T10:19:45;2.90;;;2.60;;
8982;SDS011;20979;59.850;10.660;2023-05-01T10:22:14;3.53;;;2.50;;
8982;SDS011;20979;59.850;10.660;2023-05-01T10:24:42;2.40;;;2.20;;
8982;SDS011;20979;59.850;10.660;2023-05-01T10:27:10;1.93;;;1.83;;
8982;SDS011;20979;59.850;10.660;2023-05-01T10:29:41;2.10;;;1.90;;
8982;SDS011;20979;59.850;10.660;2023-05-01T10:32:09;2.30;;;2.17;;
8982;SDS011;20979;59.850;10.660;2023-05-01T10:34:39;2.10;;;2.00;;
8982;SDS011;20979;59.850;10.660;2023-05-01T10:37:10;1.60;;;1.50;;
8982;SDS011;20979;59.850;10.660;2023-05-01T10:39:42;1.50;;;1.40;;
8982;SDS011;20979;59.850;10.660;2023-05-01T10:42:10;1.70;;;1.60;;
8982;SDS011;20979;59.850;10.660;2023-05-01T10:44:38;2.40;;;2.20;;
8982;SDS011;20979;59.850;10.660;2023-05-01T10:50:05;1.70;;;1.60;;
8982;SDS011;20979;59.850;10.660;2023-05-01T10:55:33;1.40;;;1.30;;
8982;SDS011;20979;59.850;10.660;2023-05-01T10:58:00;1.60;;;1.50;;
8982;SDS011;20979;59.850;10.660;2023-05-01T11:00:28;1.50;;;1.40;;
8982;SDS011;20979;59.850;10.660;2023-05-01T11:06:03;1.80;;;1.70;;
8982;SDS011;20979;59.850;10.660;2023-05-01T11:08:31;1.87;;;1.77;;
8982;SDS011;20979;59.850;10.660;2023-05-01T11:11:27;1.83;;;1.73;;
8982;SDS011;20979;59.850;10.660;2023-05-01T11:13:55;2.13;;;2.03;;
8982;SDS011;20979;59.850;10.660;2023-05-01T11:16:41;6.20;;;4.17;;
8982;SDS011;20979;59.850;10.660;2023-05-01T11:19:11;3.73;;;2.90;;
8982;SDS011;20979;59.850;10.660;2023-05-01T11:21:38;1.90;;;1.80;;
8982;SDS011;20979;59.850;10.660;2023-05-01T11:24:08;1.57;;;1.47;;
8982;SDS011;20979;59.850;10.660;2023-05-01T11:26:38;1.63;;;1.50;;
8982;SDS011;20979;59.850;10.660;2023-05-01T11:29:07;1.63;;;1.27;;
8982;SDS011;20979;59.850;10.660;2023-05-01T11:31:34;1.50;;;1.40;;
8982;SDS011;20979;59.850;10.660;2023-05-01T11:34:02;1.50;;;1.33;;
8982;SDS011;20979;59.850;10.660;2023-05-01T11:36:45;1.23;;;1.20;;
8982;SDS011;20979;59.850;10.660;2023-05-01T11:39:14;1.50;;;1.40;;
8982;SDS011;20979;59.850;10.660;2023-05-01T11:41:43;1.70;;;1.53;;
8982;SDS011;20979;59.850;10.660;2023-05-01T11:44:10;2.30;;;1.47;;
8982;SDS011;20979;59.850;10.660;2023-05-01T11:46:38;1.40;;;1.30;;
8982;SDS011;20979;59.850;10.660;2023-05-01T11:49:05;1.33;;;1.30;;
8982;SDS011;20979;59.850;10.660;2023-05-01T11:51:33;1.37;;;1.27;;
8982;SDS011;20979;59.850;10.660;2023-05-01T11:54:01;1.50;;;1.40;;
8982;SDS011;20979;59.850;10.660;2023-05-01T11:56:29;1.33;;;1.23;;
8982;SDS011;20979;59.850;10.660;2023-05-01T11:58:58;1.80;;;1.60;;
8982;SDS011;20979;59.850;10.660;2023-05-01T12:01:32;2.13;;;1.93;;
8982;SDS011;20979;59.850;10.660;2023-05-01T12:04:00;2.10;;;1.80;;
8982;SDS011;20979;59.850;10.660;2023-05-01T12:06:34;2.17;;;1.97;;
8982;SDS011;20979;59.850;10.660;2023-05-01T12:09:05;2.00;;;1.90;;
8982;SDS011;20979;59.850;10.660;2023-05-01T12:11:33;2.30;;;2.10;;
8982;SDS011;20979;59.850;10.660;2023-05-01T12:14:02;1.87;;;1.77;;
8982;SDS011;20979;59.850;10.660;2023-05-01T12:16:30;3.63;;;3.33;;
8982;SDS011;20979;59.850;10.660;2023-05-01T12:18:57;2.87;;;2.60;;
8982;SDS011;20979;59.850;10.660;2023-05-01T12:21:25;2.10;;;2.00;;
8982;SDS011;20979;59.850;10.660;2023-05-01T12:23:53;2.93;;;1.80;;
8982;SDS011;20979;59.850;10.660;2023-05-01T12:26:22;2.00;;;1.90;;
8982;SDS011;20979;59.850;10.660;2023-05-01T12:28:56;1.63;;;1.53;;
8982;SDS011;20979;59.850;10.660;2023-05-01T12:31:26;1.73;;;1.60;;
8982;SDS011;20979;59.850;10.660;2023-05-01T12:33:54;1.43;;;1.33;;
8982;SDS011;20979;59.850;10.660;2023-05-01T12:36:22;1.47;;;1.37;;
8982;SDS011;20979;59.850;10.660;2023-05-01T12:38:59;1.77;;;1.67;;
8982;SDS011;20979;59.850;10.660;2023-05-01T12:41:37;1.80;;;1.70;;
8982;SDS011;20979;59.850;10.660;2023-05-01T12:46:59;1.77;;;1.60;;
8982;SDS011;20979;59.850;10.660;2023-05-01T12:49:27;1.37;;;1.27;;
8982;SDS011;20979;59.850;10.660;2023-05-01T12:51:55;1.50;;;1.40;;
8982;SDS011;20979;59.850;10.660;2023-05-01T12:54:24;1.00;;;1.00;;
8982;SDS011;20979;59.850;10.660;2023-05-01T12:56:51;1.50;;;1.40;;
8982;SDS011;20979;59.850;10.660;2023-05-01T12:59:19;1.17;;;1.17;;
8982;SDS011;20979;59.850;10.660;2023-05-01T13:01:47;1.07;;;1.00;;
8982;SDS011;20979;59.850;10.660;2023-05-01T13:04:20;1.13;;;1.13;;
8982;SDS011;20979;59.850;10.660;2023-05-01T13:06:48;0.90;;;0.90;;
8982;SDS011;20979;59.850;10.660;2023-05-01T13:09:15;1.30;;;1.20;;
8982;SDS011;20979;59.850;10.660;2023-05-01T13:11:54;1.63;;;1.00;;
8982;SDS011;20979;59.850;10.660;2023-05-01T13:14:22;0.93;;;0.90;;
8982;SDS011;20979;59.850;10.660;2023-05-01T13:16:53;0.93;;;0.93;;
8982;SDS011;20979;59.850;10.660;2023-05-01T13:19:36;0.90;;;0.83;;
8982;SDS011;20979;59.850;10.660;2023-05-01T13:22:04;1.00;;;0.90;;
8982;SDS011;20979;59.850;10.660;2023-05-01T13:24:35;0.87;;;0.87;;
8982;SDS011;20979;59.850;10.660;2023-05-01T13:27:04;0.80;;;0.80;;
8982;SDS011;20979;59.850;10.660;2023-05-01T13:29:31;1.00;;;1.00;;
8982;SDS011;20979;59.850;10.660;2023-05-01T13:31:59;0.83;;;0.83;;
8982;SDS011;20979;59.850;10.660;2023-05-01T13:34:28;0.90;;;0.90;;
8982;SDS011;20979;59.850;10.660;2023-05-01T13:36:57;1.10;;;1.00;;
8982;SDS011;20979;59.850;10.660;2023-05-01T13:39:25;1.00;;;1.00;;
8982;SDS011;20979;59.850;10.660;2023-05-01T13:41:52;1.13;;;1.07;;
8982;SDS011;20979;59.850;10.660;2023-05-01T13:44:20;1.33;;;1.23;;
8982;SDS011;20979;59.850;10.660;2023-05-01T13:46:48;1.20;;;1.10;;
8982;SDS011;20979;59.850;10.660;2023-05-01T13:49:16;1.40;;;1.30;;
8982;SDS011;20979;59.850;10.660;2023-05-01T13:51:47;1.53;;;1.43;;
8982;SDS011;20979;59.850;10.660;2023-05-01T13:54:15;1.37;;;1.27;;
8982;SDS011;20979;59.850;10.660;2023-05-01T13:56:43;1.83;;;1.40;;
8982;SDS011;20979;59.850;10.660;2023-05-01T13:59:11;1.40;;;1.30;;
8982;SDS011;20979;59.850;10.660;2023-05-01T14:01:39;1.43;;;1.30;;
8982;SDS011;20979;59.850;10.660;2023-05-01T14:04:10;1.40;;;1.30;;
8982;SDS011;20979;59.850;10.660;2023-05-01T14:06:41;3.00;;;1.23;;
8982;SDS011;20979;59.850;10.660;2023-05-01T14:09:09;1.17;;;1.03;;
8982;SDS011;20979;59.850;10.660;2023-05-01T14:11:41;1.23;;;1.10;;
8982;SDS011;20979;59.850;10.660;2023-05-01T14:14:10;1.40;;;1.30;;
8982;SDS011;20979;59.850;10.660;2023-05-01T14:16:38;1.00;;;1.00;;
8982;SDS011;20979;59.850;10.660;2023-05-01T14:19:08;1.40;;;1.23;;
8982;SDS011;20979;59.850;10.660;2023-05-01T14:21:37;1.80;;;1.67;;
8982;SDS011;20979;59.850;10.660;2023-05-01T14:24:07;1.07;;;1.07;;
8982;SDS011;20979;59.850;10.660;2023-05-01T14:26:35;1.30;;;1.20;;
8982;SDS011;20979;59.850;10.660;2023-05-01T14:29:06;1.10;;;1.03;;
8982;SDS011;20979;59.850;10.660;2023-05-01T14:31:38;1.27;;;1.17;;
8982;SDS011;20979;59.850;10.660;2023-05-01T14:34:05;1.30;;;1.23;;
8982;SDS011;20979;59.850;10.660;2023-05-01T14:36:33;1.40;;;1.30;;
8982;SDS011;20979;59.850;10.660;2023-05-01T14:39:01;1.33;;;1.30;;
8982;SDS011;20979;59.850;10.660;2023-05-01T14:41:29;1.97;;;1.13;;
8982;SDS011;20979;59.850;10.660;2023-05-01T14:44:02;2.27;;;1.40;;
8982;SDS011;20979;59.850;10.660;2023-05-01T14:46:32;1.50;;;1.40;;
8982;SDS011;20979;59.850;10.660;2023-05-01T14:49:00;2.03;;;1.43;;
8982;SDS011;20979;59.850;10.660;2023-05-01T14:51:28;1.77;;;1.20;;
8982;SDS011;20979;59.850;10.660;2023-05-01T14:53:57;1.53;;;1.43;;
8982;SDS011;20979;59.850;10.660;2023-05-01T14:56:24;1.57;;;1.40;;
8982;SDS011;20979;59.850;10.660;2023-05-01T14:58:52;6.33;;;1.70;;
8982;SDS011;20979;59.850;10.660;2023-05-01T15:01:19;1.53;;;1.30;;
8982;SDS011;20979;59.850;10.660;2023-05-01T15:03:48;1.20;;;1.10;;
8982;SDS011;20979;59.850;10.660;2023-05-01T15:06:15;1.53;;;1.43;;
8982;SDS011;20979;59.850;10.660;2023-05-01T15:08:43;3.00;;;2.30;;
8982;SDS011;20979;59.850;10.660;2023-05-01T15:11:11;2.33;;;1.93;;
8982;SDS011;20979;59.850;10.660;2023-05-01T15:13:38;8.17;;;4.17;;
8982;SDS011;20979;59.850;10.660;2023-05-01T15:16:06;2.30;;;1.77;;
8982;SDS011;20979;59.850;10.660;2023-05-01T15:18:34;3.10;;;2.50;;
8982;SDS011;20979;59.850;10.660;2023-05-01T15:21:03;3.80;;;2.07;;
8982;SDS011;20979;59.850;10.660;2023-05-01T15:23:31;3.47;;;2.20;;
8982;SDS011;20979;59.850;10.660;2023-05-01T15:25:58;2.70;;;1.60;;
8982;SDS011;20979;59.850;10.660;2023-05-01T15:28:26;2.17;;;1.50;;
8982;SDS011;20979;59.850;10.660;2023-05-01T15:30:53;1.40;;;1.30;;
8982;SDS011;20979;59.850;10.660;2023-05-01T15:33:21;1.73;;;1.27;;
8982;SDS011;20979;59.850;10.660;2023-05-01T15:35:48;1.53;;;1.40;;
8982;SDS011;20979;59.850;10.660;2023-05-01T15:38:18;1.53;;;1.43;;
8982;SDS011;20979;59.850;10.660;2023-05-01T15:40:46;2.00;;;1.30;;
8982;SDS011;20979;59.850;10.660;2023-05-01T15:43:14;1.43;;;1.33;;
8982;SDS011;20979;59.850;10.660;2023-05-01T15:45:42;1.50;;;1.20;;
8982;SDS011;20979;59.850;10.660;2023-05-01T15:48:09;1.20;;;1.10;;
8982;SDS011;20979;59.850;10.660;2023-05-01T15:50:37;1.40;;;1.30;;
8982;SDS011;20979;59.850;10.660;2023-05-01T15:53:05;1.23;;;1.20;;
8982;SDS011;20979;59.850;10.660;2023-05-01T15:55:34;1.30;;;1.20;;
8982;SDS011;20979;59.850;10.660;2023-05-01T15:58:01;1.80;;;1.40;;
8982;SDS011;20979;59.850;10.660;2023-05-01T16:00:28;1.40;;;1.30;;
8982;SDS011;20979;59.850;10.660;2023-05-01T16:02:56;1.40;;;1.20;;
8982;SDS011;20979;59.850;10.660;2023-05-01T16:05:24;1.53;;;1.30;;
8982;SDS011;20979;59.850;10.660;2023-05-01T16:07:52;1.60;;;1.40;;
8982;SDS011;20979;59.850;10.660;2023-05-01T16:10:20;1.50;;;1.40;;
8982;SDS011;20979;59.850;10.660;2023-05-01T16:12:50;1.43;;;1.33;;
8982;SDS011;20979;59.850;10.660;2023-05-01T16:15:18;1.50;;;1.40;;
8982;SDS011;20979;59.850;10.660;2023-05-01T16:17:46;1.70;;;1.60;;
8982;SDS011;20979;59.850;10.660;2023-05-01T16:20:15;2.17;;;1.97;;
8982;SDS011;20979;59.850;10.660;2023-05-01T16:22:42;3.60;;;2.63;;
8982;SDS011;20979;59.850;10.660;2023-05-01T16:25:10;3.33;;;1.80;;
8982;SDS011;20979;59.850;10.660;2023-05-01T16:27:38;1.47;;;1.37;;
8982;SDS011;20979;59.850;10.660;2023-05-01T16:30:12;1.50;;;1.40;;
8982;SDS011;20979;59.850;10.660;2023-05-01T16:32:40;2.63;;;1.33;;
8982;SDS011;20979;59.850;10.660;2023-05-01T16:35:08;1.57;;;1.47;;
8982;SDS011;20979;59.850;10.660;2023-05-01T16:37:36;1.47;;;1.27;;
8982;SDS011;20979;59.850;10.660;2023-05-01T16:40:08;1.57;;;1.47;;
8982;SDS011;20979;59.850;10.660;2023-05-01T16:42:36;1.40;;;1.30;;
8982;SDS011;20979;59.850;10.660;2023-05-01T16:45:06;2.00;;;1.50;;
8982;SDS011;20979;59.850;10.660;2023-05-01T16:47:35;2.13;;;1.27;;
8982;SDS011;20979;59.850;10.660;2023-05-01T16:50:03;1.43;;;1.33;;
8982;SDS011;20979;59.850;10.660;2023-05-01T16:52:35;1.40;;;1.30;;
8982;SDS011;20979;59.850;10.660;2023-05-01T16:55:05;1.80;;;1.53;;
8982;SDS011;20979;59.850;10.660;2023-05-01T16:57:33;1.53;;;1.43;;
8982;SDS011;20979;59.850;10.660;2023-05-01T17:00:00;1.70;;;1.10;;
8982;SDS011;20979;59.850;10.660;2023-05-01T17:02:29;1.50;;;1.40;;
8982;SDS011;20979;59.850;10.660;2023-05-01T17:04:58;1.47;;;1.13;;
8982;SDS011;20979;59.850;10.660;2023-05-01T17:07:25;1.77;;;1.27;;
8982;SDS011;20979;59.850;10.660;2023-05-01T17:09:53;1.87;;;1.20;;
8982;SDS011;20979;59.850;10.660;2023-05-01T17:12:20;1.57;;;1.43;;
8982;SDS011;20979;59.850;10.660;2023-05-01T17:14:48;1.40;;;1.30;;
8982;SDS011;20979;59.850;10.660;2023-05-01T17:17:17;1.53;;;1.20;;
8982;SDS011;20979;59.850;10.660;2023-05-01T17:19:50;1.80;;;1.40;;
8982;SDS011;20979;59.850;10.660;2023-05-01T17:22:19;2.00;;;1.30;;
8982;SDS011;20979;59.850;10.660;2023-05-01T17:24:47;1.40;;;1.30;;
8982;SDS011;20979;59.850;10.660;2023-05-01T17:27:26;1.13;;;1.13;;
8982;SDS011;20979;59.850;10.660;2023-05-01T17:29:57;1.30;;;1.20;;
8982;SDS011;20979;59.850;10.660;2023-05-01T17:32:25;1.27;;;1.20;;
8982;SDS011;20979;59.850;10.660;2023-05-01T17:34:53;2.03;;;1.20;;
8982;SDS011;20979;59.850;10.660;2023-05-01T17:37:21;1.40;;;1.20;;
8982;SDS011;20979;59.850;10.660;2023-05-01T17:39:49;1.80;;;1.70;;
8982;SDS011;20979;59.850;10.660;2023-05-01T17:42:16;3.20;;;1.50;;
8982;SDS011;20979;59.850;10.660;2023-05-01T17:44:43;1.43;;;1.00;;
8982;SDS011;20979;59.850;10.660;2023-05-01T17:47:11;1.60;;;1.50;;
8982;SDS011;20979;59.850;10.660;2023-05-01T17:49:39;2.60;;;1.77;;
8982;SDS011;20979;59.850;10.660;2023-05-01T17:52:06;3.23;;;2.27;;
8982;SDS011;20979;59.850;10.660;2023-05-01T17:54:35;3.23;;;1.90;;
8982;SDS011;20979;59.850;10.660;2023-05-01T17:57:02;2.47;;;2.00;;
8982;SDS011;20979;59.850;10.660;2023-05-01T17:59:32;2.97;;;1.90;;
8982;SDS011;20979;59.850;10.660;2023-05-01T18:01:59;2.03;;;1.83;;
8982;SDS011;20979;59.850;10.660;2023-05-01T18:04:27;2.87;;;1.67;;
8982;SDS011;20979;59.850;10.660;2023-05-01T18:06:55;1.70;;;1.60;;
8982;SDS011;20979;59.850;10.660;2023-05-01T18:09:23;1.90;;;1.70;;
8982;SDS011;20979;59.850;10.660;2023-05-01T18:11:51;3.63;;;1.80;;